sensor_id;sensor_type;location;lat;lon;timestamp;temperature;humidity
75821;DHT22;64454;51.984;9.838;2023-10-09T00:01:25;15.20;1.00
75821;DHT22;64454;51.984;9.838;2023-10-09T00:03:52;15.20;1.00
75821;DHT22;64454;51.984;9.838;2023-10-09T00:06:21;15.30;1.00
75821;DHT22;64454;51.984;9.838;2023-10-09T00:08:56;15.50;1.00
75821;DHT22;64454;51.984;9.838;2023-10-09T00:11:24;15.60;1.00
75821;DHT22;64454;51.984;9.838;2023-10-09T00:13:56;15.70;1.00
75821;DHT22;64454;51.984;9.838;2023-10-09T00:16:24;15.90;1.00
75821;DHT22;64454;51.984;9.838;2023-10-09T00:19:00;15.80;1.00
75821;DHT22;64454;51.984;9.838;2023-10-09T00:21:40;15.80;1.00
75821;DHT22;64454;51.984;9.838;2023-10-09T00:24:06;15.90;1.00
75821;DHT22;64454;51.984;9.838;2023-10-09T00:26:39;15.90;1.00
75821;DHT22;64454;51.984;9.838;2023-10-09T00:29:11;16.00;1.00
75821;DHT22;64454;51.984;9.838;2023-10-09T00:31:41;15.80;1.00
75821;DHT22;64454;51.984;9.838;2023-10-09T00:34:15;15.80;1.00
75821;DHT22;64454;51.984;9.838;2023-10-09T00:36:45;15.60;1.00
75821;DHT22;64454;51.984;9.838;2023-10-09T00:39:15;15.50;1.00
75821;DHT22;64454;51.984;9.838;2023-10-09T00:41:59;15.50;1.00
75821;DHT22;64454;51.984;9.838;2023-10-09T00:44:27;15.30;1.00
75821;DHT22;64454;51.984;9.838;2023-10-09T00:47:04;15.10;1.00
75821;DHT22;64454;51.984;9.838;2023-10-09T00:49:51;15.00;1.00
75821;DHT22;64454;51.984;9.838;2023-10-09T00:52:26;15.00;1.00
75821;DHT22;64454;51.984;9.838;2023-10-09T00:54:58;14.90;1.00
75821;DHT22;64454;51.984;9.838;2023-10-09T00:57:29;14.90;1.00
75821;DHT22;64454;51.984;9.838;2023-10-09T01:00:00;15.00;1.00
75821;DHT22;64454;51.984;9.838;2023-10-09T01:02:29;15.00;1.00
75821;DHT22;64454;51.984;9.838;2023-10-09T01:05:03;15.10;1.00
75821;DHT22;64454;51.984;9.838;2023-10-09T01:07:47;15.20;1.00
75821;DHT22;64454;51.984;9.838;2023-10-09T01:10:14;15.40;1.00
75821;DHT22;64454;51.984;9.838;2023-10-09T01:12:42;15.50;1.00
75821;DHT22;64454;51.984;9.838;2023-10-09T01:15:10;15.50;1.00
75821;DHT22;64454;51.984;9.838;2023-10-09T01:17:44;15.60;1.00
75821;DHT22;64454;51.984;9.838;2023-10-09T01:20:11;15.50;1.00
75821;DHT22;64454;51.984;9.838;2023-10-09T01:22:42;15.50;1.00
75821;DHT22;64454;51.984;9.838;2023-10-09T01:25:09;15.40;1.00
75821;DHT22;64454;51.984;9.838;2023-10-09T01:27:36;15.40;1.00
75821;DHT22;64454;51.984;9.838;2023-10-09T01:30:06;15.30;1.00
75821;DHT22;64454;51.984;9.838;2023-10-09T01:32:39;15.10;1.00
75821;DHT22;64454;51.984;9.838;2023-10-09T01:35:06;15.00;1.00
75821;DHT22;64454;51.984;9.838;2023-10-09T01:37:45;15.10;1.00
75821;DHT22;64454;51.984;9.838;2023-10-09T01:40:15;15.30;1.00
75821;DHT22;64454;51.984;9.838;2023-10-09T01:42:50;15.40;1.00
75821;DHT22;64454;51.984;9.838;2023-10-09T01:45:17;15.40;1.00
75821;DHT22;64454;51.984;9.838;2023-10-09T01:47:52;15.60;1.00
75821;DHT22;64454;51.984;9.838;2023-10-09T01:50:20;15.80;1.00
75821;DHT22;64454;51.984;9.838;2023-10-09T01:52:52;15.90;1.00
75821;DHT22;64454;51.984;9.838;2023-10-09T01:55:19;16.00;1.00
75821;DHT22;64454;51.984;9.838;2023-10-09T01:57:54;16.10;1.00
75821;DHT22;64454;51.984;9.838;2023-10-09T02:00:23;16.30;1.00
75821;DHT22;64454;51.984;9.838;2023-10-09T02:02:54;16.40;1.00
75821;DHT22;64454;51.984;9.838;2023-10-09T02:05:20;16.40;1.00
75821;DHT22;64454;51.984;9.838;2023-10-09T02:07:51;16.50;1.00
75821;DHT22;64454;51.984;9.838;2023-10-09T02:10:19;16.60;1.00
75821;DHT22;64454;51.984;9.838;2023-10-09T02:12:57;16.60;1.00
75821;DHT22;64454;51.984;9.838;2023-10-09T02:15:25;16.50;1.00
75821;DHT22;64454;51.984;9.838;2023-10-09T02:18:17;16.40;1.00
75821;DHT22;64454;51.984;9.838;2023-10-09T02:20:51;16.40;1.00
75821;DHT22;64454;51.984;9.838;2023-10-09T02:23:21;16.30;1.00
75821;DHT22;64454;51.984;9.838;2023-10-09T02:25:56;16.30;1.00
75821;DHT22;64454;51.984;9.838;2023-10-09T02:28:23;16.10;1.00
75821;DHT22;64454;51.984;9.838;2023-10-09T02:30:49;16.00;1.00
75821;DHT22;64454;51.984;9.838;2023-10-09T02:33:17;15.60;1.00
75821;DHT22;64454;51.984;9.838;2023-10-09T02:35:53;15.50;1.00
75821;DHT22;64454;51.984;9.838;2023-10-09T02:38:20;15.40;1.00
75821;DHT22;64454;51.984;9.838;2023-10-09T02:40:50;15.40;1.00
75821;DHT22;64454;51.984;9.838;2023-10-09T02:43:43;15.40;1.00
75821;DHT22;64454;51.984;9.838;2023-10-09T02:46:10;15.20;1.00
75821;DHT22;64454;51.984;9.838;2023-10-09T02:48:40;15.10;1.00
75821;DHT22;64454;51.984;9.838;2023-10-09T02:51:10;15.10;1.00
75821;DHT22;64454;51.984;9.838;2023-10-09T02:53:46;15.20;1.00
75821;DHT22;64454;51.984;9.838;2023-10-09T02:56:15;15.20;1.00
75821;DHT22;64454;51.984;9.838;2023-10-09T02:58:44;15.20;1.00
75821;DHT22;64454;51.984;9.838;2023-10-09T03:01:13;15.30;1.00
75821;DHT22;64454;51.984;9.838;2023-10-09T03:03:40;15.30;1.00
75821;DHT22;64454;51.984;9.838;2023-10-09T03:06:10;15.30;1.00
75821;DHT22;64454;51.984;9.838;2023-10-09T03:08:38;15.30;1.00
75821;DHT22;64454;51.984;9.838;2023-10-09T03:11:07;15.20;1.00
75821;DHT22;64454;51.984;9.838;2023-10-09T03:13:41;15.10;1.00
75821;DHT22;64454;51.984;9.838;2023-10-09T03:16:11;15.10;1.00
75821;DHT22;64454;51.984;9.838;2023-10-09T03:18:41;15.00;1.00
75821;DHT22;64454;51.984;9.838;2023-10-09T03:21:07;15.10;1.00
75821;DHT22;64454;51.984;9.838;2023-10-09T03:23:34;15.20;1.00
75821;DHT22;64454;51.984;9.838;2023-10-09T03:26:00;15.30;1.00
75821;DHT22;64454;51.984;9.838;2023-10-09T03:28:26;15.50;1.00
75821;DHT22;64454;51.984;9.838;2023-10-09T03:30:52;15.60;1.00
75821;DHT22;64454;51.984;9.838;2023-10-09T03:33:19;15.70;1.00
75821;DHT22;64454;51.984;9.838;2023-10-09T03:35:45;15.80;1.00
75821;DHT22;64454;51.984;9.838;2023-10-09T03:38:11;15.80;1.00
75821;DHT22;64454;51.984;9.838;2023-10-09T03:40:41;15.90;1.00
75821;DHT22;64454;51.984;9.838;2023-10-09T03:43:08;15.90;1.00
75821;DHT22;64454;51.984;9.838;2023-10-09T03:45:35;16.00;1.00
75821;DHT22;64454;51.984;9.838;2023-10-09T03:48:04;15.90;1.00
75821;DHT22;64454;51.984;9.838;2023-10-09T03:50:38;15.90;1.00
75821;DHT22;64454;51.984;9.838;2023-10-09T03:53:05;15.80;1.00
75821;DHT22;64454;51.984;9.838;2023-10-09T03:55:35;15.80;1.00
75821;DHT22;64454;51.984;9.838;2023-10-09T03:58:03;15.70;1.00
75821;DHT22;64454;51.984;9.838;2023-10-09T04:00:30;15.70;1.00
75821;DHT22;64454;51.984;9.838;2023-10-09T04:02:59;15.70;1.00
75821;DHT22;64454;51.984;9.838;2023-10-09T04:05:25;15.70;1.00
75821;DHT22;64454;51.984;9.838;2023-10-09T04:07:55;15.70;1.00
75821;DHT22;64454;51.984;9.838;2023-10-09T04:10:24;15.80;1.00
75821;DHT22;64454;51.984;9.838;2023-10-09T04:13:08;15.90;1.00
75821;DHT22;64454;51.984;9.838;2023-10-09T04:15:37;16.00;1.00
75821;DHT22;64454;51.984;9.838;2023-10-09T04:18:07;16.00;1.00
75821;DHT22;64454;51.984;9.838;2023-10-09T04:20:40;16.10;1.00
75821;DHT22;64454;51.984;9.838;2023-10-09T04:23:31;16.10;1.00
75821;DHT22;64454;51.984;9.838;2023-10-09T04:26:01;16.20;1.00
75821;DHT22;64454;51.984;9.838;2023-10-09T04:28:36;16.30;1.00
75821;DHT22;64454;51.984;9.838;2023-10-09T04:31:02;16.40;1.00
75821;DHT22;64454;51.984;9.838;2023-10-09T04:33:31;16.40;1.00
75821;DHT22;64454;51.984;9.838;2023-10-09T04:36:08;16.40;1.00
75821;DHT22;64454;51.984;9.838;2023-10-09T04:38:42;16.40;1.00
75821;DHT22;64454;51.984;9.838;2023-10-09T04:41:21;16.40;1.00
75821;DHT22;64454;51.984;9.838;2023-10-09T04:43:53;16.40;1.00
75821;DHT22;64454;51.984;9.838;2023-10-09T04:46:29;16.50;1.00
75821;DHT22;64454;51.984;9.838;2023-10-09T04:48:57;16.50;1.00
75821;DHT22;64454;51.984;9.838;2023-10-09T04:51:41;16.40;1.00
75821;DHT22;64454;51.984;9.838;2023-10-09T04:54:25;16.40;1.00
75821;DHT22;64454;51.984;9.838;2023-10-09T04:57:04;16.50;1.00
75821;DHT22;64454;51.984;9.838;2023-10-09T04:59:43;16.50;1.00
75821;DHT22;64454;51.984;9.838;2023-10-09T05:02:14;16.60;1.00
75821;DHT22;64454;51.984;9.838;2023-10-09T05:04:45;16.60;1.00
75821;DHT22;64454;51.984;9.838;2023-10-09T05:07:13;16.60;1.00
75821;DHT22;64454;51.984;9.838;2023-10-09T05:09:50;16.60;1.00
75821;DHT22;64454;51.984;9.838;2023-10-09T05:12:31;16.50;1.00
75821;DHT22;64454;51.984;9.838;2023-10-09T05:14:57;16.40;1.00
75821;DHT22;64454;51.984;9.838;2023-10-09T05:17:34;16.40;1.00
75821;DHT22;64454;51.984;9.838;2023-10-09T05:20:02;16.20;1.00
75821;DHT22;64454;51.984;9.838;2023-10-09T05:22:46;16.10;1.00
75821;DHT22;64454;51.984;9.838;2023-10-09T05:25:25;16.00;1.00
75821;DHT22;64454;51.984;9.838;2023-10-09T05:28:06;15.90;1.00
75821;DHT22;64454;51.984;9.838;2023-10-09T05:30:47;15.80;1.00
75821;DHT22;64454;51.984;9.838;2023-10-09T05:33:20;15.80;5.70
75821;DHT22;64454;51.984;9.838;2023-10-09T05:36:00;16.00;12.00
75821;DHT22;64454;51.984;9.838;2023-10-09T05:38:41;16.00;15.20
75821;DHT22;64454;51.984;9.838;2023-10-09T05:41:12;16.10;13.80
75821;DHT22;64454;51.984;9.838;2023-10-09T05:44:11;16.20;8.40
75821;DHT22;64454;51.984;9.838;2023-10-09T05:46:56;16.30;8.70
75821;DHT22;64454;51.984;9.838;2023-10-09T05:49:48;16.40;8.50
75821;DHT22;64454;51.984;9.838;2023-10-09T05:52:43;16.40;3.20
75821;DHT22;64454;51.984;9.838;2023-10-09T05:55:29;16.20;1.00
75821;DHT22;64454;51.984;9.838;2023-10-09T05:58:30;16.10;6.40
75821;DHT22;64454;51.984;9.838;2023-10-09T06:01:28;16.00;22.60
75821;DHT22;64454;51.984;9.838;2023-10-09T06:04:08;16.00;41.80
75821;DHT22;64454;51.984;9.838;2023-10-09T06:06:41;16.10;52.10
75821;DHT22;64454;51.984;9.838;2023-10-09T06:09:11;16.20;51.40
75821;DHT22;64454;51.984;9.838;2023-10-09T06:11:56;16.30;60.00
75821;DHT22;64454;51.984;9.838;2023-10-09T06:14:38;16.40;63.20
75821;DHT22;64454;51.984;9.838;2023-10-09T06:17:24;16.50;80.90
75821;DHT22;64454;51.984;9.838;2023-10-09T06:19:57;16.60;66.10
75821;DHT22;64454;51.984;9.838;2023-10-09T06:22:46;16.80;55.70
75821;DHT22;64454;51.984;9.838;2023-10-09T06:25:24;16.80;48.80
75821;DHT22;64454;51.984;9.838;2023-10-09T06:27:58;16.90;39.10
75821;DHT22;64454;51.984;9.838;2023-10-09T06:30:25;16.70;24.20
75821;DHT22;64454;51.984;9.838;2023-10-09T06:32:52;16.60;33.00
75821;DHT22;64454;51.984;9.838;2023-10-09T06:35:23;16.50;52.30
75821;DHT22;64454;51.984;9.838;2023-10-09T06:37:57;16.50;73.20
75821;DHT22;64454;51.984;9.838;2023-10-09T06:40:47;16.60;93.70
75821;DHT22;64454;51.984;9.838;2023-10-09T06:43:33;16.60;79.40
75821;DHT22;64454;51.984;9.838;2023-10-09T06:46:03;16.70;84.20
75821;DHT22;64454;51.984;9.838;2023-10-09T06:49:02;16.70;78.60
75821;DHT22;64454;51.984;9.838;2023-10-09T06:51:54;16.70;60.00
75821;DHT22;64454;51.984;9.838;2023-10-09T06:54:39;16.70;60.10
75821;DHT22;64454;51.984;9.838;2023-10-09T06:57:15;16.80;58.10
75821;DHT22;64454;51.984;9.838;2023-10-09T07:00:03;16.70;62.70
75821;DHT22;64454;51.984;9.838;2023-10-09T07:02:48;16.60;61.60
75821;DHT22;64454;51.984;9.838;2023-10-09T07:05:15;16.50;88.20
75821;DHT22;64454;51.984;9.838;2023-10-09T07:07:43;16.40;99.90
75821;DHT22;64454;51.984;9.838;2023-10-09T07:10:21;16.40;99.90
75821;DHT22;64454;51.984;9.838;2023-10-09T07:12:59;16.40;99.90
75821;DHT22;64454;51.984;9.838;2023-10-09T07:15:27;16.30;99.90
75821;DHT22;64454;51.984;9.838;2023-10-09T07:18:13;16.30;99.90
75821;DHT22;64454;51.984;9.838;2023-10-09T07:20:45;16.50;99.90
75821;DHT22;64454;51.984;9.838;2023-10-09T07:23:25;16.50;99.90
75821;DHT22;64454;51.984;9.838;2023-10-09T07:26:02;16.40;99.90
75821;DHT22;64454;51.984;9.838;2023-10-09T07:28:44;16.40;99.90
75821;DHT22;64454;51.984;9.838;2023-10-09T07:31:17;16.40;99.90
75821;DHT22;64454;51.984;9.838;2023-10-09T07:33:51;16.50;99.90
75821;DHT22;64454;51.984;9.838;2023-10-09T07:36:22;16.70;99.90
75821;DHT22;64454;51.984;9.838;2023-10-09T07:39:03;16.80;99.90
75821;DHT22;64454;51.984;9.838;2023-10-09T07:41:40;17.00;99.90
75821;DHT22;64454;51.984;9.838;2023-10-09T07:44:11;17.20;99.90
75821;DHT22;64454;51.984;9.838;2023-10-09T07:47:01;17.30;99.90
75821;DHT22;64454;51.984;9.838;2023-10-09T07:49:45;17.30;99.90
75821;DHT22;64454;51.984;9.838;2023-10-09T07:52:19;17.40;99.90
75821;DHT22;64454;51.984;9.838;2023-10-09T07:54:49;17.50;99.90
75821;DHT22;64454;51.984;9.838;2023-10-09T07:57:28;17.60;99.90
75821;DHT22;64454;51.984;9.838;2023-10-09T08:00:05;17.60;99.90
75821;DHT22;64454;51.984;9.838;2023-10-09T08:02:46;17.60;99.90
75821;DHT22;64454;51.984;9.838;2023-10-09T08:05:14;17.70;99.90
75821;DHT22;64454;51.984;9.838;2023-10-09T08:07:45;17.70;99.90
75821;DHT22;64454;51.984;9.838;2023-10-09T08:10:20;17.70;99.90
75821;DHT22;64454;51.984;9.838;2023-10-09T08:13:05;17.70;99.80
75821;DHT22;64454;51.984;9.838;2023-10-09T08:16:05;17.80;97.60
75821;DHT22;64454;51.984;9.838;2023-10-09T08:18:42;17.80;84.60
75821;DHT22;64454;51.984;9.838;2023-10-09T08:21:11;17.70;94.40
75821;DHT22;64454;51.984;9.838;2023-10-09T08:24:05;17.70;99.90
75821;DHT22;64454;51.984;9.838;2023-10-09T08:26:51;17.70;99.90
75821;DHT22;64454;51.984;9.838;2023-10-09T08:29:37;17.80;99.90
75821;DHT22;64454;51.984;9.838;2023-10-09T08:32:03;17.90;99.90
75821;DHT22;64454;51.984;9.838;2023-10-09T08:34:43;17.80;99.90
75821;DHT22;64454;51.984;9.838;2023-10-09T08:37:19;17.70;99.90
75821;DHT22;64454;51.984;9.838;2023-10-09T08:39:50;17.60;99.90
75821;DHT22;64454;51.984;9.838;2023-10-09T08:42:17;17.60;99.90
75821;DHT22;64454;51.984;9.838;2023-10-09T08:44:44;17.50;99.90
75821;DHT22;64454;51.984;9.838;2023-10-09T08:47:15;17.40;99.90
75821;DHT22;64454;51.984;9.838;2023-10-09T08:49:41;17.50;99.90
75821;DHT22;64454;51.984;9.838;2023-10-09T08:52:08;17.70;99.90
75821;DHT22;64454;51.984;9.838;2023-10-09T08:54:37;17.70;99.90
75821;DHT22;64454;51.984;9.838;2023-10-09T08:57:03;17.80;99.90
75821;DHT22;64454;51.984;9.838;2023-10-09T08:59:30;17.90;99.90
75821;DHT22;64454;51.984;9.838;2023-10-09T09:01:57;18.00;99.90
75821;DHT22;64454;51.984;9.838;2023-10-09T09:04:34;18.00;99.90
75821;DHT22;64454;51.984;9.838;2023-10-09T09:07:02;18.00;57.40
75821;DHT22;64454;51.984;9.838;2023-10-09T09:09:29;18.10;85.50
75821;DHT22;64454;51.984;9.838;2023-10-09T09:11:58;18.20;98.80
75821;DHT22;64454;51.984;9.838;2023-10-09T09:14:35;18.20;84.00
75821;DHT22;64454;51.984;9.838;2023-10-09T09:17:03;18.20;86.60
75821;DHT22;64454;51.984;9.838;2023-10-09T09:19:31;18.10;82.40
75821;DHT22;64454;51.984;9.838;2023-10-09T09:21:58;18.00;69.60
75821;DHT22;64454;51.984;9.838;2023-10-09T09:24:25;18.00;80.20
75821;DHT22;64454;51.984;9.838;2023-10-09T09:27:01;18.00;94.40
75821;DHT22;64454;51.984;9.838;2023-10-09T09:29:39;18.10;91.90
75821;DHT22;64454;51.984;9.838;2023-10-09T09:32:09;18.00;69.80
75821;DHT22;64454;51.984;9.838;2023-10-09T09:34:46;17.90;90.90
75821;DHT22;64454;51.984;9.838;2023-10-09T09:37:19;17.90;99.90
75821;DHT22;64454;51.984;9.838;2023-10-09T09:39:46;18.00;99.90
75821;DHT22;64454;51.984;9.838;2023-10-09T09:42:18;17.90;99.90
75821;DHT22;64454;51.984;9.838;2023-10-09T09:44:51;18.10;99.90
75821;DHT22;64454;51.984;9.838;2023-10-09T09:47:18;18.20;80.40
75821;DHT22;64454;51.984;9.838;2023-10-09T09:49:51;18.10;46.80
75821;DHT22;64454;51.984;9.838;2023-10-09T09:52:18;18.10;68.20
75821;DHT22;64454;51.984;9.838;2023-10-09T09:54:45;18.20;78.40
75821;DHT22;64454;51.984;9.838;2023-10-09T09:57:15;18.20;61.10
75821;DHT22;64454;51.984;9.838;2023-10-09T09:59:52;18.30;80.40
75821;DHT22;64454;51.984;9.838;2023-10-09T10:02:24;18.20;71.30
75821;DHT22;64454;51.984;9.838;2023-10-09T10:04:57;18.30;94.90
75821;DHT22;64454;51.984;9.838;2023-10-09T10:07:31;18.40;79.50
75821;DHT22;64454;51.984;9.838;2023-10-09T10:10:34;18.50;88.90
75821;DHT22;64454;51.984;9.838;2023-10-09T10:13:04;18.60;88.80
75821;DHT22;64454;51.984;9.838;2023-10-09T10:18:55;18.80;63.30
75821;DHT22;64454;51.984;9.838;2023-10-09T10:21:26;18.80;75.00
75821;DHT22;64454;51.984;9.838;2023-10-09T10:24:41;18.90;81.70
75821;DHT22;64454;51.984;9.838;2023-10-09T10:27:17;19.00;81.20
75821;DHT22;64454;51.984;9.838;2023-10-09T10:30:26;19.00;86.00
75821;DHT22;64454;51.984;9.838;2023-10-09T10:32:57;19.00;58.90
75821;DHT22;64454;51.984;9.838;2023-10-09T10:35:35;19.10;67.80
75821;DHT22;64454;51.984;9.838;2023-10-09T10:38:31;19.20;67.20
75821;DHT22;64454;51.984;9.838;2023-10-09T10:41:10;19.30;30.50
75821;DHT22;64454;51.984;9.838;2023-10-09T10:43:43;19.40;22.90
75821;DHT22;64454;51.984;9.838;2023-10-09T10:46:14;19.40;26.40
75821;DHT22;64454;51.984;9.838;2023-10-09T10:48:41;19.30;1.00
75821;DHT22;64454;51.984;9.838;2023-10-09T10:51:12;19.40;4.60
75821;DHT22;64454;51.984;9.838;2023-10-09T10:53:50;19.50;12.80
75821;DHT22;64454;51.984;9.838;2023-10-09T10:56:18;19.50;16.30
75821;DHT22;64454;51.984;9.838;2023-10-09T10:58:52;19.60;15.30
75821;DHT22;64454;51.984;9.838;2023-10-09T11:01:38;19.70;9.40
75821;DHT22;64454;51.984;9.838;2023-10-09T11:04:19;19.80;8.10
75821;DHT22;64454;51.984;9.838;2023-10-09T11:07:07;19.90;12.30
75821;DHT22;64454;51.984;9.838;2023-10-09T11:09:43;19.90;1.00
75821;DHT22;64454;51.984;9.838;2023-10-09T11:12:24;19.90;1.00
75821;DHT22;64454;51.984;9.838;2023-10-09T11:15:04;19.80;1.00
75821;DHT22;64454;51.984;9.838;2023-10-09T11:17:32;19.80;1.00
75821;DHT22;64454;51.984;9.838;2023-10-09T11:20:01;19.70;1.00
75821;DHT22;64454;51.984;9.838;2023-10-09T11:22:49;19.60;1.00
75821;DHT22;64454;51.984;9.838;2023-10-09T11:25:42;19.40;11.70
75821;DHT22;64454;51.984;9.838;2023-10-09T11:28:17;19.40;18.50
75821;DHT22;64454;51.984;9.838;2023-10-09T11:31:08;19.50;27.20
75821;DHT22;64454;51.984;9.838;2023-10-09T11:33:44;19.50;20.10
75821;DHT22;64454;51.984;9.838;2023-10-09T11:36:11;19.60;22.70
75821;DHT22;64454;51.984;9.838;2023-10-09T11:38:37;19.40;27.60
75821;DHT22;64454;51.984;9.838;2023-10-09T11:41:12;19.30;32.90
75821;DHT22;64454;51.984;9.838;2023-10-09T11:43:48;19.20;41.20
75821;DHT22;64454;51.984;9.838;2023-10-09T11:46:19;18.90;78.80
75821;DHT22;64454;51.984;9.838;2023-10-09T11:49:14;18.90;99.90
75821;DHT22;64454;51.984;9.838;2023-10-09T11:52:05;18.80;99.90
75821;DHT22;64454;51.984;9.838;2023-10-09T11:54:46;18.60;99.90
75821;DHT22;64454;51.984;9.838;2023-10-09T11:57:14;18.50;99.90
75821;DHT22;64454;51.984;9.838;2023-10-09T11:59:42;18.60;99.90
75821;DHT22;64454;51.984;9.838;2023-10-09T12:02:09;18.50;99.90
75821;DHT22;64454;51.984;9.838;2023-10-09T12:04:38;18.40;99.90
75821;DHT22;64454;51.984;9.838;2023-10-09T12:07:07;18.40;99.90
75821;DHT22;64454;51.984;9.838;2023-10-09T12:09:35;18.30;99.90
75821;DHT22;64454;51.984;9.838;2023-10-09T12:12:02;18.30;99.90
75821;DHT22;64454;51.984;9.838;2023-10-09T12:14:29;18.20;99.90
75821;DHT22;64454;51.984;9.838;2023-10-09T12:16:59;18.20;99.90
75821;DHT22;64454;51.984;9.838;2023-10-09T12:19:31;18.10;99.90
75821;DHT22;64454;51.984;9.838;2023-10-09T12:21:59;18.10;99.90
75821;DHT22;64454;51.984;9.838;2023-10-09T12:24:27;17.90;99.90
75821;DHT22;64454;51.984;9.838;2023-10-09T12:26:55;18.10;99.90
75821;DHT22;64454;51.984;9.838;2023-10-09T12:29:21;18.10;99.90
75821;DHT22;64454;51.984;9.838;2023-10-09T12:31:49;18.10;99.90
75821;DHT22;64454;51.984;9.838;2023-10-09T12:34:23;18.10;99.90
75821;DHT22;64454;51.984;9.838;2023-10-09T12:36:52;18.20;99.90
75821;DHT22;64454;51.984;9.838;2023-10-09T12:39:19;18.20;99.90
75821;DHT22;64454;51.984;9.838;2023-10-09T12:41:45;18.30;99.90
75821;DHT22;64454;51.984;9.838;2023-10-09T12:44:12;18.40;99.90
75821;DHT22;64454;51.984;9.838;2023-10-09T12:46:40;18.50;99.90
75821;DHT22;64454;51.984;9.838;2023-10-09T12:49:06;18.40;99.90
75821;DHT22;64454;51.984;9.838;2023-10-09T12:51:33;18.50;99.90
75821;DHT22;64454;51.984;9.838;2023-10-09T12:53:59;18.50;99.90
75821;DHT22;64454;51.984;9.838;2023-10-09T12:56:28;18.50;99.90
75821;DHT22;64454;51.984;9.838;2023-10-09T12:58:58;18.50;99.90
75821;DHT22;64454;51.984;9.838;2023-10-09T13:01:26;18.50;99.90
75821;DHT22;64454;51.984;9.838;2023-10-09T13:03:57;18.40;99.90
75821;DHT22;64454;51.984;9.838;2023-10-09T13:06:25;18.40;99.90
75821;DHT22;64454;51.984;9.838;2023-10-09T13:08:51;18.40;99.90
75821;DHT22;64454;51.984;9.838;2023-10-09T13:11:18;18.40;99.90
75821;DHT22;64454;51.984;9.838;2023-10-09T13:13:46;18.40;99.90
75821;DHT22;64454;51.984;9.838;2023-10-09T13:16:14;18.40;99.90
75821;DHT22;64454;51.984;9.838;2023-10-09T13:18:48;18.20;99.90
75821;DHT22;64454;51.984;9.838;2023-10-09T13:21:19;18.30;99.90
75821;DHT22;64454;51.984;9.838;2023-10-09T13:23:46;18.40;99.90
75821;DHT22;64454;51.984;9.838;2023-10-09T13:26:12;18.40;99.90
75821;DHT22;64454;51.984;9.838;2023-10-09T13:28:51;18.30;99.90
75821;DHT22;64454;51.984;9.838;2023-10-09T13:31:19;18.40;99.90
75821;DHT22;64454;51.984;9.838;2023-10-09T13:33:47;18.40;99.90
75821;DHT22;64454;51.984;9.838;2023-10-09T13:36:14;18.60;99.90
75821;DHT22;64454;51.984;9.838;2023-10-09T13:38:52;18.60;99.90
75821;DHT22;64454;51.984;9.838;2023-10-09T13:41:20;18.70;99.90
75821;DHT22;64454;51.984;9.838;2023-10-09T13:43:46;18.60;99.90
75821;DHT22;64454;51.984;9.838;2023-10-09T13:46:17;18.50;99.90
75821;DHT22;64454;51.984;9.838;2023-10-09T13:48:44;18.50;99.90
75821;DHT22;64454;51.984;9.838;2023-10-09T13:51:12;18.50;99.90
75821;DHT22;64454;51.984;9.838;2023-10-09T13:53:42;18.50;99.90
75821;DHT22;64454;51.984;9.838;2023-10-09T13:56:13;18.60;99.90
75821;DHT22;64454;51.984;9.838;2023-10-09T13:58:44;18.50;99.90
75821;DHT22;64454;51.984;9.838;2023-10-09T14:01:11;18.50;99.90
75821;DHT22;64454;51.984;9.838;2023-10-09T14:03:47;18.50;99.90
75821;DHT22;64454;51.984;9.838;2023-10-09T14:06:15;18.60;99.90
75821;DHT22;64454;51.984;9.838;2023-10-09T14:08:45;18.60;99.90
75821;DHT22;64454;51.984;9.838;2023-10-09T14:11:11;18.70;99.90
75821;DHT22;64454;51.984;9.838;2023-10-09T14:13:39;18.70;99.90
75821;DHT22;64454;51.984;9.838;2023-10-09T14:16:05;18.60;99.90
75821;DHT22;64454;51.984;9.838;2023-10-09T14:18:32;18.70;99.90
75821;DHT22;64454;51.984;9.838;2023-10-09T14:21:01;18.80;99.90
75821;DHT22;64454;51.984;9.838;2023-10-09T14:23:30;18.80;99.90
75821;DHT22;64454;51.984;9.838;2023-10-09T14:26:00;19.00;99.90
75821;DHT22;64454;51.984;9.838;2023-10-09T14:28:27;18.90;99.90
75821;DHT22;64454;51.984;9.838;2023-10-09T14:30:54;18.90;99.90
75821;DHT22;64454;51.984;9.838;2023-10-09T14:33:24;19.00;99.90
75821;DHT22;64454;51.984;9.838;2023-10-09T14:35:54;18.90;99.90
75821;DHT22;64454;51.984;9.838;2023-10-09T14:38:21;18.90;99.90
75821;DHT22;64454;51.984;9.838;2023-10-09T14:40:53;19.00;99.90
75821;DHT22;64454;51.984;9.838;2023-10-09T14:43:23;19.00;99.90
75821;DHT22;64454;51.984;9.838;2023-10-09T14:45:54;19.10;99.90
75821;DHT22;64454;51.984;9.838;2023-10-09T14:48:21;19.10;99.90
75821;DHT22;64454;51.984;9.838;2023-10-09T14:50:51;19.00;99.90
75821;DHT22;64454;51.984;9.838;2023-10-09T14:53:18;19.10;99.90
75821;DHT22;64454;51.984;9.838;2023-10-09T14:55:46;19.10;99.90
75821;DHT22;64454;51.984;9.838;2023-10-09T14:58:13;19.10;99.90
75821;DHT22;64454;51.984;9.838;2023-10-09T15:00:39;19.00;99.90
75821;DHT22;64454;51.984;9.838;2023-10-09T15:03:13;18.90;99.90
75821;DHT22;64454;51.984;9.838;2023-10-09T15:05:41;19.00;99.90
75821;DHT22;64454;51.984;9.838;2023-10-09T15:08:07;19.00;99.90
75821;DHT22;64454;51.984;9.838;2023-10-09T15:10:43;18.90;99.90
75821;DHT22;64454;51.984;9.838;2023-10-09T15:13:11;19.00;99.90
75821;DHT22;64454;51.984;9.838;2023-10-09T15:15:40;19.00;99.90
75821;DHT22;64454;51.984;9.838;2023-10-09T15:18:07;18.90;99.90
75821;DHT22;64454;51.984;9.838;2023-10-09T15:20:35;18.90;99.90
75821;DHT22;64454;51.984;9.838;2023-10-09T15:23:01;18.80;99.90
75821;DHT22;64454;51.984;9.838;2023-10-09T15:25:27;18.80;99.90
75821;DHT22;64454;51.984;9.838;2023-10-09T15:27:53;18.80;99.90
75821;DHT22;64454;51.984;9.838;2023-10-09T15:30:20;18.80;99.90
75821;DHT22;64454;51.984;9.838;2023-10-09T15:32:46;18.70;99.90
75821;DHT22;64454;51.984;9.838;2023-10-09T15:35:14;18.70;99.90
75821;DHT22;64454;51.984;9.838;2023-10-09T15:37:41;18.50;99.90
75821;DHT22;64454;51.984;9.838;2023-10-09T15:40:08;18.70;99.90
75821;DHT22;64454;51.984;9.838;2023-10-09T15:42:39;18.60;99.90
75821;DHT22;64454;51.984;9.838;2023-10-09T15:45:07;18.70;99.90
75821;DHT22;64454;51.984;9.838;2023-10-09T15:47:35;18.70;99.90
75821;DHT22;64454;51.984;9.838;2023-10-09T15:50:02;18.70;99.90
75821;DHT22;64454;51.984;9.838;2023-10-09T15:52:28;18.70;99.90
75821;DHT22;64454;51.984;9.838;2023-10-09T15:54:55;18.70;99.90
75821;DHT22;64454;51.984;9.838;2023-10-09T15:57:21;18.70;99.90
75821;DHT22;64454;51.984;9.838;2023-10-09T15:59:47;18.70;99.90
75821;DHT22;64454;51.984;9.838;2023-10-09T16:02:14;18.80;99.90
75821;DHT22;64454;51.984;9.838;2023-10-09T16:04:43;18.60;99.90
75821;DHT22;64454;51.984;9.838;2023-10-09T16:07:10;18.60;99.90
75821;DHT22;64454;51.984;9.838;2023-10-09T16:09:36;18.70;99.90
75821;DHT22;64454;51.984;9.838;2023-10-09T16:12:04;18.80;99.90
75821;DHT22;64454;51.984;9.838;2023-10-09T16:14:31;18.80;99.90
75821;DHT22;64454;51.984;9.838;2023-10-09T16:16:57;18.90;99.90